createdAt,value
2023-03-28T00:00:49.946Z,102460.09
2023-03-28T00:03:27.831Z,102463.31
2023-03-28T00:06:02.902Z,102464.84
2023-03-28T00:08:35.461Z,102473.22
2023-03-28T00:11:09.372Z,102468.66
2023-03-28T00:13:40.699Z,102473.56
2023-03-28T00:16:24.264Z,102470.81
2023-03-28T00:19:00.792Z,102465.25
2023-03-28T00:21:36.182Z,102469.28
2023-03-28T00:24:11.054Z,102462.19
2023-03-28T00:26:40.677Z,102467.28
2023-03-28T00:29:12.153Z,102471.56
2023-03-28T00:31:42.043Z,102468.88
2023-03-28T00:34:17.207Z,102463.72
2023-03-28T00:36:51.398Z,102472.47
2023-03-28T00:39:30.004Z,102474.44
2023-03-28T00:42:04.518Z,102478.38
2023-03-28T00:44:52.287Z,102467.94
2023-03-28T00:47:41.222Z,102471.28
2023-03-28T00:50:33.682Z,102474.31
2023-03-28T00:53:13.567Z,102475.34
2023-03-28T00:55:52.959Z,102469.13
2023-03-28T00:58:33.319Z,102473.22
2023-03-28T01:01:04.050Z,102465.91
2023-03-28T01:03:38.425Z,102471.63
2023-03-28T01:06:12.678Z,102474.00
2023-03-28T01:08:47.567Z,102480.63
2023-03-28T01:11:18.202Z,102471.75
2023-03-28T01:13:57.739Z,102484.53
2023-03-28T01:16:32.046Z,102474.78
2023-03-28T01:19:05.646Z,102478.00
2023-03-28T01:22:18.389Z,102480.13
2023-03-28T01:25:32.929Z,102485.63
2023-03-28T01:28:18.137Z,102482.59
2023-03-28T01:31:34.464Z,102480.50
2023-03-28T01:34:50.118Z,102483.50
2023-03-28T01:37:38.186Z,102474.59
2023-03-28T01:40:35.958Z,102475.19
2023-03-28T01:43:34.450Z,102475.78
2023-03-28T01:46:10.758Z,102473.91
2023-03-28T01:48:59.773Z,102476.22
2023-03-28T01:51:48.487Z,102476.03
2023-03-28T01:54:32.403Z,102479.41
2023-03-28T01:57:12.484Z,102478.63
2023-03-28T01:59:47.188Z,102476.03
2023-03-28T02:02:40.969Z,102476.03
2023-03-28T02:05:17.572Z,102472.44
2023-03-28T02:07:53.589Z,102477.41
2023-03-28T02:10:35.324Z,102472.06
2023-03-28T02:13:12.685Z,102471.94
2023-03-28T02:15:45.717Z,102473.47
2023-03-28T02:18:38.270Z,102467.19
2023-03-28T02:21:16.016Z,102476.47
2023-03-28T02:23:53.355Z,102472.00
2023-03-28T02:26:54.805Z,102471.00
2023-03-28T02:29:30.855Z,102470.00
2023-03-28T02:32:00.938Z,102474.97
2023-03-28T02:34:32.559Z,102467.91
2023-03-28T02:37:17.305Z,102468.72
2023-03-28T02:40:02.967Z,102468.72
2023-03-28T02:43:07.356Z,102465.84
2023-03-28T02:46:12.514Z,102469.22
2023-03-28T02:49:16.846Z,102474.31
2023-03-28T02:52:11.865Z,102469.91
2023-03-28T02:55:01.183Z,102467.22
2023-03-28T02:57:38.523Z,102469.63
2023-03-28T03:00:14.096Z,102472.09
2023-03-28T03:02:48.538Z,102473.78
2023-03-28T03:05:36.710Z,102473.72
2023-03-28T03:08:07.165Z,102466.84
2023-03-28T03:10:38.132Z,102478.06
2023-03-28T03:13:08.139Z,102474.50
2023-03-28T03:15:41.472Z,102472.59
2023-03-28T03:18:11.799Z,102469.13
2023-03-28T03:20:46.071Z,102475.00
2023-03-28T03:23:34.711Z,102474.91
2023-03-28T03:26:04.364Z,102473.00
2023-03-28T03:28:34.734Z,102470.13
2023-03-28T03:31:07.024Z,102474.38
2023-03-28T03:33:39.862Z,102481.47
2023-03-28T03:36:12.942Z,102477.06
2023-03-28T03:39:01.202Z,102468.13
2023-03-28T03:41:32.417Z,102476.66
2023-03-28T03:44:02.779Z,102475.69
2023-03-28T03:46:35.221Z,102479.16
2023-03-28T03:49:05.924Z,102468.72
2023-03-28T03:51:36.331Z,102486.78
2023-03-28T03:54:40.906Z,102491.78
2023-03-28T03:57:19.901Z,102484.81
2023-03-28T03:59:56.861Z,102479.56
2023-03-28T04:02:39.827Z,102488.09
2023-03-28T04:05:23.329Z,102488.88
2023-03-28T04:08:02.555Z,102491.25
2023-03-28T04:10:41.973Z,102493.81
2023-03-28T04:13:13.523Z,102492.06
2023-03-28T04:15:54.775Z,102494.63
2023-03-28T04:18:53.617Z,102501.28
2023-03-28T04:21:46.995Z,102500.38
2023-03-28T04:24:18.464Z,102492.53
2023-03-28T04:27:13.166Z,102504.34
2023-03-28T04:29:48.613Z,102513.00
2023-03-28T04:32:45.277Z,102509.41
2023-03-28T04:35:39.762Z,102520.53
2023-03-28T04:38:10.534Z,102517.03
2023-03-28T04:40:57.128Z,102523.91
2023-03-28T04:43:36.719Z,102523.13
2023-03-28T04:46:08.664Z,102529.88
2023-03-28T04:48:47.458Z,102536.59
2023-03-28T04:51:27.660Z,102538.19
2023-03-28T04:54:01.947Z,102531.13
2023-03-28T04:56:40.012Z,102531.91
2023-03-28T04:59:10.286Z,102533.50
2023-03-28T05:02:01.880Z,102534.28
2023-03-28T05:05:22.922Z,102538.94
2023-03-28T05:07:57.310Z,102542.31
2023-03-28T05:14:28.531Z,102550.16
2023-03-28T05:17:00.572Z,102549.34
2023-03-28T05:19:31.883Z,102552.06
2023-03-28T05:22:01.567Z,102559.78
2023-03-28T05:24:36.839Z,102562.38
2023-03-28T05:27:07.367Z,102560.59
2023-03-28T05:29:39.098Z,102564.75
2023-03-28T05:32:09.976Z,102557.78
2023-03-28T05:34:44.257Z,102558.03
2023-03-28T05:37:14.709Z,102559.78
2023-03-28T05:39:47.780Z,102557.22
2023-03-28T05:42:17.584Z,102564.16
2023-03-28T05:45:05.755Z,102569.31
2023-03-28T05:47:36.050Z,102567.72
2023-03-28T05:50:08.104Z,102559.22
2023-03-28T05:52:38.285Z,102555.06
2023-03-28T05:55:11.064Z,102558.66
2023-03-28T05:57:41.607Z,102550.28
2023-03-28T06:00:14.318Z,102557.47
2023-03-28T06:02:45.058Z,102564.81
2023-03-28T06:05:15.703Z,102557.50
2023-03-28T06:07:45.534Z,102563.09
2023-03-28T06:10:19.133Z,102563.50
2023-03-28T06:12:48.858Z,102557.03
2023-03-28T06:15:18.922Z,102558.56
2023-03-28T06:17:49.176Z,102549.59
2023-03-28T06:20:21.272Z,102554.59
2023-03-28T06:22:53.310Z,102552.03
2023-03-28T06:25:29.816Z,102559.78
2023-03-28T06:28:00.498Z,102559.78
2023-03-28T06:30:33.880Z,102556.38
2023-03-28T06:33:03.810Z,102558.13
2023-03-28T06:35:38.151Z,102563.47
2023-03-28T06:38:08.659Z,102545.28
2023-03-28T06:40:41.383Z,102558.56
2023-03-28T06:43:11.429Z,102565.84
2023-03-28T06:45:43.259Z,102561.31
2023-03-28T06:48:13.443Z,102560.16
2023-03-28T06:50:42.782Z,102554.06
2023-03-28T06:53:24.575Z,102553.09
2023-03-28T06:56:01.193Z,102559.91
2023-03-28T06:58:32.031Z,102557.66
2023-03-28T07:01:02.135Z,102567.28
2023-03-28T07:03:36.780Z,102569.72
2023-03-28T07:06:09.122Z,102576.22
2023-03-28T07:08:41.398Z,102579.06
2023-03-28T07:11:14.811Z,102575.22
2023-03-28T07:13:44.671Z,102577.50
2023-03-28T07:17:01.200Z,102576.41
2023-03-28T07:19:53.510Z,102575.19
2023-03-28T07:22:29.222Z,102577.13
2023-03-28T07:25:02.266Z,102576.44
2023-03-28T07:27:33.893Z,102569.56
2023-03-28T07:30:03.991Z,102564.59
2023-03-28T07:32:43.353Z,102573.63
2023-03-28T07:35:26.297Z,102570.31
2023-03-28T07:38:14.769Z,102576.66
2023-03-28T07:40:45.338Z,102577.03
2023-03-28T07:43:19.431Z,102574.94
2023-03-28T07:45:48.960Z,102580.50
2023-03-28T07:48:48.063Z,102587.75
2023-03-28T07:51:18.730Z,102576.72
2023-03-28T07:54:07.046Z,102592.41
2023-03-28T07:56:36.205Z,102584.00
2023-03-28T07:59:07.565Z,102584.50
2023-03-28T08:01:37.813Z,102587.53
2023-03-28T08:04:41.554Z,102587.28
2023-03-28T08:07:35.170Z,102584.63
2023-03-28T08:10:11.975Z,102591.44
2023-03-28T08:12:43.204Z,102587.47
2023-03-28T08:15:15.446Z,102586.81
2023-03-28T08:17:45.081Z,102594.91
2023-03-28T08:20:16.910Z,102589.72
2023-03-28T08:22:47.609Z,102588.75
2023-03-28T08:25:32.226Z,102592.19
2023-03-28T08:28:01.728Z,102587.91
2023-03-28T08:30:33.978Z,102587.28
2023-03-28T08:33:05.287Z,102582.41
2023-03-28T08:35:36.567Z,102579.13
2023-03-28T08:38:09.705Z,102591.25
2023-03-28T08:41:05.840Z,102588.78
2023-03-28T08:44:00.504Z,102591.22
2023-03-28T08:46:34.399Z,102588.22
2023-03-28T08:49:12.270Z,102578.31
2023-03-28T08:52:03.257Z,102578.97
2023-03-28T08:54:43.187Z,102591.56
2023-03-28T08:57:21.741Z,102578.88
2023-03-28T09:00:09.890Z,102579.09
2023-03-28T09:03:08.936Z,102583.88
2023-03-28T09:06:16.617Z,102578.47
2023-03-28T09:09:22.098Z,102578.56
2023-03-28T09:12:33.792Z,102576.88
2023-03-28T09:15:32.674Z,102578.09
2023-03-28T09:18:33.678Z,102575.97
2023-03-28T09:21:17.647Z,102578.97
2023-03-28T09:24:23.115Z,102575.06
2023-03-28T09:27:02.857Z,102568.19
2023-03-28T09:30:10.991Z,102575.84
2023-03-28T09:32:44.015Z,102580.97
2023-03-28T09:35:24.250Z,102582.75
2023-03-28T09:38:03.637Z,102589.03
2023-03-28T09:40:36.286Z,102578.81
2023-03-28T09:43:31.759Z,102582.81
2023-03-28T09:46:10.430Z,102575.25
2023-03-28T09:48:41.786Z,102565.00
2023-03-28T09:51:20.178Z,102566.41
2023-03-28T09:53:50.461Z,102569.41
2023-03-28T09:56:35.638Z,102563.22
2023-03-28T09:59:07.506Z,102565.78
2023-03-28T10:01:42.766Z,102568.41
2023-03-28T10:04:16.544Z,102558.56
2023-03-28T10:06:50.889Z,102557.69
2023-03-28T10:09:27.018Z,102548.13
2023-03-28T10:12:00.885Z,102547.31
2023-03-28T10:14:57.645Z,102549.16
2023-03-28T10:17:35.408Z,102543.97
2023-03-28T10:20:17.388Z,102538.78
2023-03-28T10:22:55.880Z,102539.56
2023-03-28T10:26:31.833Z,102530.34
2023-03-28T10:29:18.970Z,102530.34
2023-03-28T10:31:55.063Z,102535.22
2023-03-28T10:34:30.507Z,102530.41
2023-03-28T10:37:29.594Z,102526.97
2023-03-28T10:40:29.289Z,102522.88
2023-03-28T10:43:02.159Z,102527.78
2023-03-28T10:45:41.804Z,102523.94
2023-03-28T10:48:16.035Z,102522.38
2023-03-28T10:50:49.548Z,102517.25
2023-03-28T10:53:45.323Z,102525.19
2023-03-28T10:56:59.853Z,102522.38
2023-03-28T10:59:59.094Z,102514.81
2023-03-28T11:02:56.677Z,102509.63
2023-03-28T11:05:52.107Z,102511.44
2023-03-28T11:08:55.426Z,102505.91
2023-03-28T11:12:04.194Z,102507.75
2023-03-28T11:14:49.947Z,102503.47
2023-03-28T11:17:35.929Z,102493.34
2023-03-28T11:20:41.024Z,102492.97
2023-03-28T11:23:54.097Z,102485.66
2023-03-28T11:26:36.060Z,102482.34
2023-03-28T11:29:42.672Z,102483.47
2023-03-28T11:32:22.626Z,102480.03
2023-03-28T11:35:07.750Z,102463.94
2023-03-28T11:37:43.788Z,102475.94
2023-03-28T11:40:29.341Z,102476.16
2023-03-28T11:43:34.202Z,102472.59
2023-03-28T11:46:12.479Z,102461.41
2023-03-28T11:48:52.926Z,102448.47
2023-03-28T11:51:33.760Z,102454.13
2023-03-28T11:54:09.033Z,102443.16
2023-03-28T11:57:19.353Z,102453.56
2023-03-28T12:00:33.150Z,102443.59
2023-03-28T12:03:17.841Z,102439.97
2023-03-28T12:06:00.024Z,102420.13
2023-03-28T12:08:40.209Z,102423.84
2023-03-28T12:11:19.007Z,102419.19
2023-03-28T12:14:08.921Z,102416.53
2023-03-28T12:16:50.483Z,102408.84
2023-03-28T12:19:32.838Z,102403.16
2023-03-28T12:22:09.926Z,102401.81
2023-03-28T12:24:47.968Z,102389.88
2023-03-28T12:27:31.784Z,102392.78
2023-03-28T12:30:09.212Z,102384.91
2023-03-28T12:32:53.333Z,102386.81
2023-03-28T12:35:34.461Z,102378.41
2023-03-28T12:38:31.712Z,102381.44
2023-03-28T12:41:12.319Z,102378.72
2023-03-28T12:43:54.132Z,102372.22
2023-03-28T12:46:34.896Z,102365.41
2023-03-28T12:49:15.953Z,102365.56
2023-03-28T12:51:49.941Z,102359.59
2023-03-28T12:54:34.611Z,102361.34
2023-03-28T12:57:17.045Z,102343.88
2023-03-28T13:00:18.454Z,102335.19
2023-03-28T13:03:01.513Z,102348.41
2023-03-28T13:05:57.474Z,102357.19
2023-03-28T13:08:58.939Z,102345.69
2023-03-28T13:11:45.035Z,102341.38
2023-03-28T13:14:42.375Z,102329.03
2023-03-28T13:17:53.165Z,102321.94
2023-03-28T13:20:34.943Z,102323.75
2023-03-28T13:23:10.315Z,102323.75
2023-03-28T13:26:08.136Z,102329.06
2023-03-28T13:29:06.810Z,102313.97
2023-03-28T13:31:37.508Z,102313.06
2023-03-28T13:34:07.614Z,102305.13
2023-03-28T13:36:39.361Z,102297.13
2023-03-28T13:39:27.129Z,102292.72
2023-03-28T13:42:06.262Z,102294.53
2023-03-28T13:44:45.495Z,102296.31
2023-03-28T13:47:26.499Z,102286.66
2023-03-28T13:50:05.262Z,102274.31
2023-03-28T13:52:36.602Z,102268.97
2023-03-28T13:55:28.037Z,102271.59
2023-03-28T13:58:02.383Z,102263.69
2023-03-28T14:00:33.214Z,102259.28
2023-03-28T14:03:14.146Z,102264.56
2023-03-28T14:06:06.433Z,102267.19
2023-03-28T14:08:37.876Z,102250.47
2023-03-28T14:11:09.495Z,102249.59
2023-03-28T14:13:44.472Z,102246.97
2023-03-28T14:16:16.528Z,102233.63
2023-03-28T14:18:52.682Z,102234.41
2023-03-28T14:21:37.587Z,102224.75
2023-03-28T14:24:17.404Z,102223.88
2023-03-28T14:26:49.052Z,102218.75
2023-03-28T14:29:22.554Z,102218.75
2023-03-28T14:32:20.115Z,102221.22
2023-03-28T14:34:51.911Z,102234.88
2023-03-28T14:37:25.427Z,102223.88
2023-03-28T14:40:00.003Z,102224.38
2023-03-28T14:42:34.418Z,102225.00
2023-03-28T14:45:24.026Z,102219.59
2023-03-28T14:48:01.684Z,102215.66
2023-03-28T14:50:42.515Z,102219.72
2023-03-28T14:53:21.961Z,102200.34
2023-03-28T14:56:01.662Z,102197.63
2023-03-28T14:58:33.898Z,102200.97
2023-03-28T15:01:12.771Z,102200.78
2023-03-28T15:03:47.243Z,102204.97
2023-03-28T15:06:41.437Z,102192.50
2023-03-28T15:09:28.152Z,102193.22
2023-03-28T15:12:09.599Z,102178.34
2023-03-28T15:14:50.810Z,102176.63
2023-03-28T15:17:48.323Z,102168.84
2023-03-28T15:20:30.471Z,102172.44
2023-03-28T15:23:11.817Z,102170.50
2023-03-28T15:25:44.126Z,102168.50
2023-03-28T15:28:19.511Z,102167.53
2023-03-28T15:31:02.250Z,102160.41
2023-03-28T15:33:36.566Z,102148.25
2023-03-28T15:36:14.398Z,102150.38
2023-03-28T15:38:45.783Z,102143.84
2023-03-28T15:41:29.855Z,102131.41
2023-03-28T15:45:16.236Z,102128.56
2023-03-28T15:47:46.244Z,102127.91
2023-03-28T15:50:47.500Z,102124.47
2023-03-28T15:54:40.160Z,102119.88
2023-03-28T15:57:13.890Z,102118.69
2023-03-28T15:59:48.903Z,102114.94
2023-03-28T16:02:37.576Z,102106.75
2023-03-28T16:05:39.744Z,102098.28
2023-03-28T16:08:28.858Z,102104.88
2023-03-28T16:11:17.420Z,102098.25
2023-03-28T16:14:05.617Z,102090.84
2023-03-28T16:16:37.084Z,102087.66
2023-03-28T16:19:25.600Z,102093.38
2023-03-28T16:22:01.866Z,102093.91
2023-03-28T16:24:35.416Z,102077.88
2023-03-28T16:27:13.097Z,102087.22
2023-03-28T16:29:43.995Z,102075.56
2023-03-28T16:32:17.829Z,102084.00
2023-03-28T16:35:18.902Z,102075.75
2023-03-28T16:38:03.375Z,102076.53
2023-03-28T16:40:49.070Z,102079.00
2023-03-28T16:43:28.629Z,102064.00
2023-03-28T16:46:01.959Z,102073.50
2023-03-28T16:48:34.757Z,102068.09
2023-03-28T16:51:09.596Z,102070.50
2023-03-28T16:53:42.451Z,102059.06
2023-03-28T16:56:16.681Z,102052.81
2023-03-28T16:58:48.379Z,102057.03
2023-03-28T17:01:20.430Z,102051.75
2023-03-28T17:03:57.636Z,102063.03
2023-03-28T17:06:39.310Z,102066.28
2023-03-28T17:09:28.497Z,102074.00
2023-03-28T17:11:59.987Z,102063.38
2023-03-28T17:14:34.270Z,102072.88
2023-03-28T17:17:32.229Z,102063.06
2023-03-28T17:20:05.588Z,102061.81
2023-03-28T17:22:39.236Z,102067.56
2023-03-28T17:25:33.461Z,102061.22
2023-03-28T17:28:33.649Z,102060.13
2023-03-28T17:31:32.719Z,102048.75
2023-03-28T17:34:04.909Z,102053.13
2023-03-28T17:36:37.107Z,102044.44
2023-03-28T17:39:41.973Z,102046.19
2023-03-28T17:42:14.958Z,102040.16
2023-03-28T17:44:49.298Z,102037.50
2023-03-28T17:47:19.885Z,102038.28
2023-03-28T17:49:50.700Z,102030.25
2023-03-28T17:52:41.227Z,102037.94
2023-03-28T17:55:25.885Z,102038.69
2023-03-28T17:58:04.297Z,102035.91
2023-03-28T18:00:35.743Z,102035.81
2023-03-28T18:03:07.359Z,102023.59
2023-03-28T18:06:02.366Z,102023.50
2023-03-28T18:08:38.292Z,102020.00
2023-03-28T18:11:14.199Z,102020.91
2023-03-28T18:14:01.426Z,102016.50
2023-03-28T18:16:35.459Z,102013.81
2023-03-28T18:19:08.183Z,102005.13
2023-03-28T18:21:43.164Z,102013.00
2023-03-28T18:24:15.097Z,102000.75
2023-03-28T18:26:47.574Z,102003.44
2023-03-28T18:29:19.456Z,102007.84
2023-03-28T18:31:53.015Z,102005.22
2023-03-28T18:34:37.274Z,102010.34
2023-03-28T18:37:08.136Z,101996.34
2023-03-28T18:39:42.253Z,102006.53
2023-03-28T18:42:15.626Z,102002.63
2023-03-28T18:44:45.588Z,102007.59
2023-03-28T18:47:26.059Z,102003.13
2023-03-28T18:50:02.681Z,102003.03
2023-03-28T18:52:33.527Z,102013.38
2023-03-28T18:55:29.746Z,102001.91
2023-03-28T18:58:12.435Z,102004.28
2023-03-28T19:00:44.415Z,102005.03
2023-03-28T19:03:41.231Z,101999.56
2023-03-28T19:06:24.194Z,101998.72
2023-03-28T19:09:13.822Z,102006.34
2023-03-28T19:14:43.928Z,101989.38
2023-03-28T19:17:19.972Z,101992.75
2023-03-28T19:20:06.395Z,101974.50
2023-03-28T19:23:03.281Z,101983.25
2023-03-28T19:29:35.798Z,101983.78
2023-03-28T19:32:35.294Z,101974.34
2023-03-28T19:35:16.183Z,101979.72
2023-03-28T19:38:23.335Z,101980.25
2023-03-28T19:45:47.015Z,101976.31
2023-03-28T19:48:17.271Z,101968.63
2023-03-28T19:51:11.497Z,101960.97
2023-03-28T19:53:46.142Z,101964.28
2023-03-28T19:56:20.307Z,101966.47
2023-03-28T19:58:50.940Z,101950.38
2023-03-28T20:01:24.287Z,101953.63
2023-03-28T20:03:56.750Z,101950.09
2023-03-28T20:07:00.070Z,101948.13
2023-03-28T20:10:06.011Z,101949.69
2023-03-28T20:12:58.350Z,101947.81
2023-03-28T20:15:37.393Z,101946.03
2023-03-28T20:18:31.436Z,101939.97
2023-03-28T20:21:40.347Z,101935.63
2023-03-28T20:24:11.394Z,101943.22
2023-03-28T20:26:41.755Z,101930.97
2023-03-28T20:29:38.951Z,101927.44
2023-03-28T20:32:10.318Z,101935.97
2023-03-28T20:34:48.275Z,101925.13
2023-03-28T20:37:40.803Z,101922.31
2023-03-28T20:40:11.943Z,101922.94
2023-03-28T20:43:22.554Z,101914.22
2023-03-28T20:46:05.646Z,101912.66
2023-03-28T20:48:38.570Z,101919.75
2023-03-28T20:51:17.648Z,101905.97
2023-03-28T20:53:49.484Z,101901.00
2023-03-28T20:56:20.216Z,101898.59
2023-03-28T20:59:19.968Z,101893.41
2023-03-28T21:01:49.587Z,101896.09
2023-03-28T21:04:19.920Z,101893.56
2023-03-28T21:07:02.060Z,101884.94
2023-03-28T21:09:31.834Z,101883.28
2023-03-28T21:12:01.729Z,101883.38
2023-03-28T21:14:47.420Z,101874.75
2023-03-28T21:17:24.533Z,101867.84
2023-03-28T21:19:59.588Z,101866.13
2023-03-28T21:22:34.127Z,101857.44
2023-03-28T21:25:04.110Z,101865.09
2023-03-28T21:27:40.880Z,101849.50
2023-03-28T21:30:29.380Z,101846.88
2023-03-28T21:33:03.990Z,101834.69
2023-03-28T21:35:34.848Z,101830.38
2023-03-28T21:38:06.955Z,101833.81
2023-03-28T21:40:36.484Z,101832.88
2023-03-28T21:43:37.267Z,101825.06
2023-03-28T21:46:31.909Z,101831.06
2023-03-28T21:49:01.593Z,101820.66
2023-03-28T21:51:32.303Z,101820.66
2023-03-28T21:54:09.730Z,101822.34
2023-03-28T21:56:40.794Z,101817.13
2023-03-28T21:59:40.350Z,101810.22
2023-03-28T22:02:26.548Z,101815.44
2023-03-28T22:04:59.188Z,101811.97
2023-03-28T22:07:30.268Z,101810.31
2023-03-28T22:10:03.922Z,101806.84
2023-03-28T22:12:34.796Z,101808.63
2023-03-28T22:15:36.306Z,101806.91
2023-03-28T22:18:09.793Z,101809.56
2023-03-28T22:20:44.083Z,101810.47
2023-03-28T22:23:15.018Z,101807.84
2023-03-28T22:25:46.737Z,101804.41
2023-03-28T22:28:16.391Z,101803.50
2023-03-28T22:30:46.917Z,101801.84
2023-03-28T22:33:17.198Z,101794.88
2023-03-28T22:35:48.493Z,101791.47
2023-03-28T22:38:19.483Z,101793.28
2023-03-28T22:40:49.914Z,101800.25
2023-03-28T22:43:19.943Z,101793.38
2023-03-28T22:45:49.664Z,101791.72
2023-03-28T22:48:32.039Z,101786.50
2023-03-28T22:51:02.060Z,101785.69
2023-03-28T22:53:35.562Z,101784.81
2023-03-28T22:56:29.721Z,101781.41
2023-03-28T22:59:02.653Z,101775.28
2023-03-28T23:01:32.377Z,101781.41
2023-03-28T23:04:01.994Z,101775.38
2023-03-28T23:06:46.066Z,101765.84
2023-03-28T23:09:17.044Z,101763.28
2023-03-28T23:11:48.967Z,101765.91
2023-03-28T23:15:43.396Z,101755.50
2023-03-28T23:18:19.661Z,101762.50
2023-03-28T23:20:54.386Z,101757.28
2023-03-28T23:23:28.895Z,101754.66
2023-03-28T23:26:09.378Z,101742.50
2023-03-28T23:29:10.939Z,101731.09
2023-03-28T23:31:42.178Z,101728.53
2023-03-28T23:34:12.189Z,101733.75
2023-03-28T23:36:43.018Z,101726.88
2023-03-28T23:39:13.827Z,101726.00
2023-03-28T23:42:17.119Z,101716.38
2023-03-28T23:45:16.116Z,101717.13
2023-03-28T23:48:19.865Z,101709.22
2023-03-28T23:50:52.983Z,101710.97
2023-03-28T23:53:28.479Z,101696.13
2023-03-28T23:55:59.500Z,101689.97
2023-03-28T23:58:32.576Z,101694.25
